createdAt,value
2018-05-11T00:00:09.970Z,0.80
2018-05-11T00:01:09.960Z,1.40
2018-05-11T00:02:09.952Z,0.80
2018-05-11T00:03:09.944Z,0.90
2018-05-11T00:04:09.935Z,1.00
2018-05-11T00:05:09.936Z,0.90
2018-05-11T00:06:09.918Z,1.50
2018-05-11T00:07:09.910Z,0.90
2018-05-11T00:08:09.902Z,1.10
2018-05-11T00:09:09.892Z,0.90
2018-05-11T00:10:09.886Z,1.60
2018-05-11T00:11:09.876Z,0.70
2018-05-11T00:12:09.868Z,1.50
2018-05-11T00:13:09.859Z,1.30
2018-05-11T00:14:09.854Z,1.10
2018-05-11T00:15:09.843Z,1.50
2018-05-11T00:16:09.834Z,1.50
2018-05-11T00:17:09.825Z,0.90
2018-05-11T00:18:09.816Z,0.90
2018-05-11T00:19:09.815Z,1.20
2018-05-11T00:20:09.800Z,1.10
2018-05-11T00:21:09.791Z,1.60
2018-05-11T00:22:09.783Z,0.80
2018-05-11T00:23:09.774Z,1.20
2018-05-11T00:24:09.767Z,0.70
2018-05-11T00:25:09.757Z,0.90
2018-05-11T00:26:09.749Z,0.90
2018-05-11T00:27:09.740Z,1.30
2018-05-11T00:28:09.735Z,1.50
2018-05-11T00:29:09.722Z,1.20
2018-05-11T00:30:09.714Z,0.90
2018-05-11T00:31:09.710Z,1.00
2018-05-11T00:32:09.700Z,1.00
2018-05-11T00:33:09.689Z,1.80
2018-05-11T00:34:09.680Z,1.10
2018-05-11T00:35:09.672Z,1.30
2018-05-11T00:36:09.664Z,1.00
2018-05-11T00:37:09.654Z,1.00
2018-05-11T00:38:09.647Z,1.10
2018-05-11T00:39:09.638Z,1.00
2018-05-11T00:40:09.630Z,1.30
2018-05-11T00:41:09.621Z,1.00
2018-05-11T00:42:09.612Z,1.10
2018-05-11T00:43:09.605Z,1.30
2018-05-11T00:44:09.596Z,1.10
2018-05-11T00:45:09.587Z,1.40
2018-05-11T00:46:09.578Z,1.10
2018-05-11T00:47:09.571Z,1.10
2018-05-11T00:48:09.563Z,0.80
2018-05-11T00:49:09.555Z,1.30
2018-05-11T00:50:09.545Z,1.50
2018-05-11T00:51:09.604Z,1.00
2018-05-11T00:52:09.528Z,0.80
2018-05-11T00:53:09.518Z,1.30
2018-05-11T00:54:09.510Z,0.60
2018-05-11T00:55:09.504Z,0.90
2018-05-11T00:56:09.493Z,0.40
2018-05-11T00:57:09.484Z,0.90
2018-05-11T00:58:09.475Z,1.80
2018-05-11T00:59:09.467Z,1.40
2018-05-11T01:00:09.459Z,1.00
2018-05-11T01:01:09.454Z,0.80
2018-05-11T01:02:09.440Z,1.10
2018-05-11T01:03:09.432Z,1.60
2018-05-11T01:04:09.424Z,1.00
2018-05-11T01:05:09.414Z,1.10
2018-05-11T01:06:09.408Z,1.80
2018-05-11T01:07:09.396Z,1.00
2018-05-11T01:08:09.388Z,1.40
2018-05-11T01:09:09.379Z,1.20
2018-05-11T01:10:09.370Z,1.30
2018-05-11T01:11:09.362Z,0.90
2018-05-11T01:12:09.353Z,0.90
2018-05-11T01:13:09.343Z,0.90
2018-05-11T01:14:09.335Z,0.90
2018-05-11T01:15:09.326Z,1.20
2018-05-11T01:16:09.318Z,1.00
2018-05-11T01:17:09.307Z,1.10
2018-05-11T01:18:09.302Z,1.20
2018-05-11T01:19:09.290Z,1.10
2018-05-11T01:20:09.281Z,1.70
2018-05-11T01:21:09.272Z,1.20
2018-05-11T01:22:09.316Z,1.20
2018-05-11T01:23:09.254Z,0.70
2018-05-11T01:24:09.245Z,0.90
2018-05-11T01:25:09.236Z,0.90
2018-05-11T01:26:09.227Z,0.90
2018-05-11T01:27:09.219Z,1.20
2018-05-11T01:28:09.209Z,1.50
2018-05-11T01:29:09.201Z,1.00
2018-05-11T01:30:09.191Z,0.90
2018-05-11T01:31:09.182Z,0.90
2018-05-11T01:32:09.173Z,0.90
2018-05-11T01:33:09.167Z,0.70
2018-05-11T01:34:09.155Z,0.90
2018-05-11T01:35:09.146Z,1.00
2018-05-11T01:36:09.137Z,1.20
2018-05-11T01:37:09.127Z,0.80
2018-05-11T01:38:09.118Z,1.20
2018-05-11T01:39:09.110Z,1.30
2018-05-11T01:40:09.100Z,1.20
2018-05-11T01:41:09.090Z,0.90
2018-05-11T01:42:09.081Z,0.80
2018-05-11T01:43:09.072Z,1.10
2018-05-11T01:44:09.064Z,0.90
2018-05-11T01:45:09.053Z,0.80
2018-05-11T01:46:09.046Z,1.00
2018-05-11T01:47:09.035Z,0.70
2018-05-11T01:48:09.027Z,1.50
2018-05-11T01:49:09.017Z,1.10
2018-05-11T01:50:09.008Z,1.20
2018-05-11T01:51:08.999Z,1.40
2018-05-11T01:52:08.990Z,1.00
2018-05-11T01:53:08.980Z,1.00
2018-05-11T01:54:08.971Z,1.20
2018-05-11T01:55:08.962Z,1.20
2018-05-11T01:56:08.954Z,0.70
2018-05-11T01:57:08.945Z,1.30
2018-05-11T01:58:08.935Z,0.90
2018-05-11T01:59:08.926Z,1.00
2018-05-11T02:00:08.917Z,1.40
2018-05-11T02:01:08.908Z,1.10
2018-05-11T02:02:08.898Z,1.30
2018-05-11T02:03:08.889Z,1.50
2018-05-11T02:04:08.881Z,1.30
2018-05-11T02:05:08.871Z,1.00
2018-05-11T02:06:08.864Z,1.80
2018-05-11T02:07:08.853Z,0.70
2018-05-11T02:08:08.844Z,1.00
2018-05-11T02:09:08.834Z,1.20
2018-05-11T02:10:08.825Z,1.50
2018-05-11T02:11:08.818Z,1.10
2018-05-11T02:12:08.807Z,1.10
2018-05-11T02:13:08.798Z,1.20
2018-05-11T02:14:08.789Z,1.20
2018-05-11T02:15:08.780Z,1.10
2018-05-11T02:16:08.771Z,1.20
2018-05-11T02:17:08.760Z,1.20
2018-05-11T02:18:08.751Z,1.30
2018-05-11T02:19:08.742Z,2.10
2018-05-11T02:20:08.733Z,1.10
2018-05-11T02:21:08.723Z,0.90
2018-05-11T02:22:08.714Z,1.50
2018-05-11T02:23:08.705Z,1.60
2018-05-11T02:24:08.696Z,1.70
2018-05-11T02:25:08.686Z,1.10
2018-05-11T02:26:08.677Z,1.50
2018-05-11T02:27:08.668Z,1.00
2018-05-11T02:28:08.658Z,1.00
2018-05-11T02:29:08.648Z,1.00
2018-05-11T02:30:08.640Z,1.60
2018-05-11T02:31:08.630Z,1.30
2018-05-11T02:32:08.621Z,1.40
2018-05-11T02:33:08.614Z,1.10
2018-05-11T02:34:08.601Z,1.30
2018-05-11T02:35:08.595Z,0.90
2018-05-11T02:36:08.592Z,1.30
2018-05-11T02:37:08.572Z,1.10
2018-05-11T02:38:08.578Z,1.20
2018-05-11T02:39:08.555Z,1.00
2018-05-11T02:40:08.545Z,1.10
2018-05-11T02:41:08.537Z,1.50
2018-05-11T02:42:08.527Z,1.40
2018-05-11T02:43:08.516Z,1.30
2018-05-11T02:44:08.507Z,1.20
2018-05-11T02:45:08.497Z,1.70
2018-05-11T02:46:08.487Z,1.20
2018-05-11T02:47:08.479Z,1.50
2018-05-11T02:48:08.468Z,1.80
2018-05-11T02:49:08.460Z,0.80
2018-05-11T02:50:08.454Z,2.10
2018-05-11T02:51:08.441Z,1.30
2018-05-11T02:52:08.434Z,1.20
2018-05-11T02:53:08.424Z,1.00
2018-05-11T02:54:08.411Z,1.60
2018-05-11T02:55:08.401Z,1.00
2018-05-11T02:56:08.400Z,1.30
2018-05-11T02:57:08.385Z,1.60
2018-05-11T02:58:08.374Z,1.00
2018-05-11T02:59:08.364Z,1.00
2018-05-11T03:00:08.353Z,1.10
2018-05-11T03:01:08.342Z,1.40
2018-05-11T03:02:08.333Z,0.90
2018-05-11T03:03:08.326Z,1.30
2018-05-11T03:04:08.314Z,0.90
2018-05-11T03:05:08.309Z,1.50
2018-05-11T03:06:08.298Z,1.20
2018-05-11T03:07:08.285Z,1.80
2018-05-11T03:08:08.275Z,1.30
2018-05-11T03:09:08.265Z,1.70
2018-05-11T03:10:08.256Z,1.60
2018-05-11T03:11:08.246Z,1.40
2018-05-11T03:12:08.238Z,1.40
2018-05-11T03:13:08.225Z,1.00
2018-05-11T03:14:08.218Z,1.30
2018-05-11T03:15:08.206Z,1.30
2018-05-11T03:16:08.199Z,1.30
2018-05-11T03:17:08.186Z,1.10
2018-05-11T03:18:08.182Z,1.20
2018-05-11T03:19:08.167Z,1.60
2018-05-11T03:20:08.161Z,1.20
2018-05-11T03:21:08.147Z,1.90
2018-05-11T03:22:08.138Z,1.30
2018-05-11T03:23:08.131Z,1.30
2018-05-11T03:24:08.121Z,1.30
2018-05-11T03:25:08.108Z,1.10
2018-05-11T03:26:08.098Z,1.20
2018-05-11T03:27:08.089Z,1.20
2018-05-11T03:28:08.079Z,1.10
2018-05-11T03:29:08.068Z,1.50
2018-05-11T03:30:08.059Z,1.60
2018-05-11T03:31:08.049Z,1.00
2018-05-11T03:32:08.039Z,1.00
2018-05-11T03:33:08.030Z,1.60
2018-05-11T03:34:08.019Z,1.90
2018-05-11T03:35:08.010Z,1.80
2018-05-11T03:36:08.006Z,1.30
2018-05-11T03:37:07.990Z,1.50
2018-05-11T03:38:07.980Z,1.80
2018-05-11T03:39:07.971Z,1.40
2018-05-11T03:40:07.961Z,1.40
2018-05-11T03:41:07.950Z,1.60
2018-05-11T03:42:07.943Z,1.20
2018-05-11T03:43:07.931Z,1.60
2018-05-11T03:44:07.921Z,1.80
2018-05-11T03:45:07.911Z,1.20
2018-05-11T03:46:07.901Z,1.30
2018-05-11T03:47:07.891Z,1.40
2018-05-11T03:48:07.882Z,1.40
2018-05-11T03:49:07.870Z,1.70
2018-05-11T03:50:07.860Z,1.90
2018-05-11T03:51:07.851Z,0.90
2018-05-11T03:52:07.851Z,0.90
2018-05-11T03:53:07.831Z,1.30
2018-05-11T03:54:07.820Z,1.10
2018-05-11T03:55:07.812Z,1.30
2018-05-11T03:56:07.802Z,1.80
2018-05-11T03:57:07.791Z,1.20
2018-05-11T03:58:07.781Z,1.50
2018-05-11T03:59:07.772Z,1.10
2018-05-11T04:00:07.762Z,1.60
2018-05-11T04:01:07.751Z,1.60
2018-05-11T04:02:07.741Z,1.00
2018-05-11T04:03:07.731Z,1.70
2018-05-11T04:04:07.722Z,0.90
2018-05-11T04:05:07.712Z,1.40
2018-05-11T04:06:07.701Z,0.80
2018-05-11T04:07:07.693Z,1.10
2018-05-11T04:08:07.681Z,1.20
2018-05-11T04:09:07.672Z,1.70
2018-05-11T04:10:07.660Z,1.40
2018-05-11T04:11:07.651Z,1.40
2018-05-11T04:12:07.641Z,1.40
2018-05-11T04:13:07.633Z,1.40
2018-05-11T04:14:07.620Z,1.30
2018-05-11T04:15:07.610Z,1.20
2018-05-11T04:16:07.601Z,1.30
2018-05-11T04:17:07.594Z,0.90
2018-05-11T04:18:07.580Z,0.90
2018-05-11T04:19:07.570Z,1.20
2018-05-11T04:20:07.560Z,1.50
2018-05-11T04:21:07.550Z,1.20
2018-05-11T04:22:07.540Z,1.20
2018-05-11T04:23:07.530Z,1.30
2018-05-11T04:24:07.521Z,1.00
2018-05-11T04:25:07.510Z,1.20
2018-05-11T04:26:07.500Z,0.90
2018-05-11T04:27:07.490Z,1.60
2018-05-11T04:28:07.480Z,1.20
2018-05-11T04:29:07.473Z,1.50
2018-05-11T04:30:07.489Z,1.40
2018-05-11T04:31:07.451Z,1.70
2018-05-11T04:32:07.442Z,1.30
2018-05-11T04:33:07.433Z,1.50
2018-05-11T04:34:07.421Z,2.10
2018-05-11T04:35:07.411Z,1.30
2018-05-11T04:36:07.401Z,1.60
2018-05-11T04:37:07.413Z,0.90
2018-05-11T04:38:07.381Z,1.50
2018-05-11T04:39:07.371Z,0.90
2018-05-11T04:40:07.361Z,1.40
2018-05-11T04:41:07.352Z,1.10
2018-05-11T04:42:07.341Z,1.60
2018-05-11T04:43:07.331Z,0.90
2018-05-11T04:44:07.322Z,1.20
2018-05-11T04:45:07.311Z,1.70
2018-05-11T04:46:07.303Z,1.70
2018-05-11T04:47:07.291Z,1.50
2018-05-11T04:48:07.283Z,1.30
2018-05-11T04:49:07.271Z,1.60
2018-05-11T04:50:07.261Z,1.60
2018-05-11T04:51:07.251Z,0.90
2018-05-11T04:52:07.245Z,1.50
2018-05-11T04:53:07.233Z,1.70
2018-05-11T04:54:07.221Z,1.40
2018-05-11T04:55:07.212Z,1.40
2018-05-11T04:56:07.202Z,1.00
2018-05-11T04:57:07.191Z,1.50
2018-05-11T04:58:07.182Z,1.10
2018-05-11T04:59:07.173Z,1.30
2018-05-11T05:00:07.168Z,1.30
2018-05-11T05:01:07.157Z,1.80
2018-05-11T05:02:07.144Z,1.60
2018-05-11T05:03:07.135Z,1.40
2018-05-11T05:04:07.126Z,1.60
2018-05-11T05:05:07.115Z,1.10
2018-05-11T05:06:07.107Z,1.40
2018-05-11T05:07:07.098Z,1.30
2018-05-11T05:08:07.093Z,1.20
2018-05-11T05:09:07.083Z,1.20
2018-05-11T05:10:07.070Z,2.30
2018-05-11T05:11:07.060Z,1.30
2018-05-11T05:12:07.052Z,1.40
2018-05-11T05:13:07.042Z,1.20
2018-05-11T05:14:07.033Z,1.80
2018-05-11T05:15:07.025Z,1.50
2018-05-11T05:16:07.019Z,1.50
2018-05-11T05:17:07.005Z,1.50
2018-05-11T05:18:06.996Z,1.80
2018-05-11T05:19:07.080Z,1.40
2018-05-11T05:20:06.979Z,1.40
2018-05-11T05:21:06.969Z,1.70
2018-05-11T05:22:06.960Z,1.90
2018-05-11T05:23:06.952Z,1.50
2018-05-11T05:24:06.942Z,1.90
2018-05-11T05:25:06.933Z,1.80
2018-05-11T05:26:06.924Z,1.80
2018-05-11T05:27:06.915Z,1.70
2018-05-11T05:28:06.907Z,1.50
2018-05-11T05:29:06.903Z,1.60
2018-05-11T05:30:06.889Z,1.70
2018-05-11T05:31:06.883Z,1.70
2018-05-11T05:32:06.872Z,1.50
2018-05-11T05:33:06.889Z,1.30
2018-05-11T05:34:06.854Z,1.70
2018-05-11T05:35:06.847Z,2.20
2018-05-11T05:36:06.838Z,1.30
2018-05-11T05:37:06.829Z,1.60
2018-05-11T05:38:06.820Z,1.90
2018-05-11T05:39:06.888Z,2.60
2018-05-11T05:40:06.804Z,2.30
2018-05-11T05:41:06.795Z,1.70
2018-05-11T05:42:06.787Z,1.70
2018-05-11T05:43:06.779Z,1.50
2018-05-11T05:44:06.771Z,1.20
2018-05-11T05:45:06.761Z,1.50
2018-05-11T05:46:06.753Z,1.40
2018-05-11T05:47:06.745Z,2.00
2018-05-11T05:48:06.736Z,2.10
2018-05-11T05:49:06.728Z,1.40
2018-05-11T05:50:06.720Z,1.80
2018-05-11T05:51:06.711Z,1.50
2018-05-11T05:52:06.739Z,2.00
2018-05-11T05:53:06.694Z,1.70
2018-05-11T05:54:06.686Z,2.20
2018-05-11T05:55:06.678Z,1.80
2018-05-11T05:56:06.670Z,1.70
2018-05-11T05:57:06.665Z,1.90
2018-05-11T05:58:06.655Z,1.80
2018-05-11T05:59:06.649Z,1.90
2018-05-11T06:00:06.640Z,1.70
2018-05-11T06:01:06.632Z,1.90
2018-05-11T06:02:06.621Z,2.30
2018-05-11T06:03:06.614Z,2.20
2018-05-11T06:04:06.606Z,2.00
2018-05-11T06:05:06.597Z,2.00
2018-05-11T06:06:06.589Z,2.60
2018-05-11T06:07:06.582Z,2.00
2018-05-11T06:08:06.630Z,1.50
2018-05-11T06:09:06.565Z,1.30
2018-05-11T06:10:06.563Z,2.40
2018-05-11T06:11:06.550Z,2.00
2018-05-11T06:12:06.542Z,1.80
2018-05-11T06:13:06.542Z,1.90
2018-05-11T06:14:06.526Z,1.50
2018-05-11T06:15:06.518Z,2.40
2018-05-11T06:16:06.510Z,2.60
2018-05-11T06:17:06.502Z,2.60
2018-05-11T06:18:06.494Z,2.20
2018-05-11T06:19:06.487Z,2.30
2018-05-11T06:20:06.480Z,2.80
2018-05-11T06:21:06.470Z,2.40
2018-05-11T06:22:06.565Z,2.00
2018-05-11T06:23:06.456Z,2.60
2018-05-11T06:24:06.448Z,2.00
2018-05-11T06:25:06.442Z,2.10
2018-05-11T06:26:06.432Z,3.00
2018-05-11T06:27:06.430Z,2.70
2018-05-11T06:28:06.419Z,2.10
2018-05-11T06:29:06.412Z,2.20
2018-05-11T06:30:06.403Z,2.50
2018-05-11T06:31:06.400Z,2.80
2018-05-11T06:32:06.389Z,3.20
2018-05-11T06:33:06.383Z,2.60
2018-05-11T06:34:06.373Z,2.80
2018-05-11T06:35:06.366Z,2.50
2018-05-11T06:36:06.360Z,2.10
2018-05-11T06:37:06.366Z,3.50
2018-05-11T06:38:06.344Z,2.90
2018-05-11T06:39:06.337Z,3.30
2018-05-11T06:40:06.331Z,3.30
2018-05-11T06:41:06.323Z,3.50
2018-05-11T06:42:06.317Z,3.10
2018-05-11T06:43:06.310Z,4.10
2018-05-11T06:44:06.305Z,2.90
2018-05-11T06:45:06.296Z,3.70
2018-05-11T06:46:06.406Z,3.20
2018-05-11T06:47:06.283Z,3.20
2018-05-11T06:48:06.276Z,4.40
2018-05-11T06:49:06.269Z,3.70
2018-05-11T06:50:06.263Z,3.40
2018-05-11T06:51:06.256Z,3.30
2018-05-11T06:52:06.251Z,4.20
2018-05-11T06:53:06.243Z,3.60
2018-05-11T06:54:06.236Z,3.30
2018-05-11T06:55:06.231Z,3.20
2018-05-11T06:56:06.224Z,3.40
2018-05-11T06:57:06.217Z,3.10
2018-05-11T06:58:06.211Z,4.20
2018-05-11T06:59:06.205Z,4.30
2018-05-11T07:00:06.200Z,3.70
2018-05-11T07:01:06.194Z,3.90
2018-05-11T07:02:06.188Z,3.70
2018-05-11T07:03:06.183Z,4.40
2018-05-11T07:04:06.177Z,4.80
2018-05-11T07:05:06.171Z,4.30
2018-05-11T07:06:06.167Z,4.30
2018-05-11T07:07:06.162Z,4.60
2018-05-11T07:08:06.257Z,4.40
2018-05-11T07:09:06.152Z,3.70
2018-05-11T07:10:06.147Z,4.50
2018-05-11T07:11:06.143Z,4.40
2018-05-11T07:12:06.139Z,4.40
2018-05-11T07:13:06.135Z,4.80
2018-05-11T07:14:06.132Z,3.60
2018-05-11T07:15:06.130Z,4.90
2018-05-11T07:16:06.128Z,4.50
2018-05-11T07:17:06.124Z,3.90
2018-05-11T07:18:06.122Z,4.80
2018-05-11T07:19:06.121Z,5.30
2018-05-11T07:20:06.120Z,4.40
2018-05-11T07:21:06.121Z,5.10
2018-05-11T07:22:06.117Z,5.10
2018-05-11T07:23:06.116Z,5.00
2018-05-11T07:24:06.124Z,4.30
2018-05-11T07:25:06.117Z,5.40
2018-05-11T07:26:06.114Z,5.10
2018-05-11T07:27:06.113Z,5.20
2018-05-11T07:28:06.113Z,4.80
2018-05-11T07:29:06.112Z,5.40
2018-05-11T07:30:06.117Z,5.40
2018-05-11T07:31:06.112Z,5.70
2018-05-11T07:32:06.119Z,5.50
2018-05-11T07:33:06.113Z,5.30
2018-05-11T07:34:06.116Z,5.90
2018-05-11T07:35:06.114Z,5.50
2018-05-11T07:36:06.120Z,5.50
2018-05-11T07:37:06.115Z,5.80
2018-05-11T07:38:06.117Z,5.80
2018-05-11T07:39:06.122Z,6.60
2018-05-11T07:40:06.120Z,6.50
2018-05-11T07:41:06.121Z,5.10
2018-05-11T07:42:06.123Z,5.70
2018-05-11T07:43:06.165Z,6.00
2018-05-11T07:44:06.129Z,5.60
2018-05-11T07:45:06.223Z,6.20
2018-05-11T07:46:06.132Z,6.20
2018-05-11T07:47:06.136Z,6.50
2018-05-11T07:48:06.138Z,6.90
2018-05-11T07:49:06.141Z,6.90
2018-05-11T07:50:06.144Z,6.80
2018-05-11T07:51:06.148Z,6.60
2018-05-11T07:52:06.154Z,6.70
2018-05-11T07:53:06.156Z,6.10
2018-05-11T07:54:06.157Z,6.40
2018-05-11T07:55:06.161Z,5.70
2018-05-11T07:56:06.169Z,5.80
2018-05-11T07:57:06.168Z,6.10
2018-05-11T07:58:06.174Z,6.40
2018-05-11T07:59:06.178Z,6.00
2018-05-11T08:00:06.184Z,6.40
2018-05-11T08:01:06.186Z,6.70
2018-05-11T08:02:06.190Z,6.10
2018-05-11T08:03:06.195Z,7.40
2018-05-11T08:04:06.202Z,6.00
2018-05-11T08:05:06.268Z,7.10
2018-05-11T08:06:06.207Z,6.70
2018-05-11T08:07:06.213Z,6.00
2018-05-11T08:08:06.221Z,7.10
2018-05-11T08:09:06.220Z,6.30
2018-05-11T08:10:06.227Z,6.10
2018-05-11T08:11:06.228Z,6.20
2018-05-11T08:12:06.232Z,6.50
2018-05-11T08:13:06.235Z,6.80
2018-05-11T08:14:06.345Z,6.40
2018-05-11T08:15:06.244Z,6.50
2018-05-11T08:16:06.249Z,6.50
2018-05-11T08:17:06.254Z,5.40
2018-05-11T08:18:06.260Z,5.60
2018-05-11T08:19:06.272Z,6.00
2018-05-11T08:20:06.271Z,5.50
2018-05-11T08:21:06.276Z,5.40
2018-05-11T08:22:06.282Z,5.90
2018-05-11T08:23:06.289Z,5.40
2018-05-11T08:24:06.294Z,5.70
2018-05-11T08:25:06.300Z,6.50
2018-05-11T08:26:06.307Z,5.30
2018-05-11T08:27:06.313Z,6.00
2018-05-11T08:28:06.320Z,5.60
2018-05-11T08:29:06.326Z,5.80
2018-05-11T08:30:06.334Z,6.50
2018-05-11T08:31:06.341Z,5.50
2018-05-11T08:32:06.349Z,6.30
2018-05-11T08:33:06.355Z,5.80
2018-05-11T08:34:06.369Z,5.70
2018-05-11T08:35:06.371Z,5.70
2018-05-11T08:36:06.381Z,5.80
2018-05-11T08:37:06.386Z,6.10
2018-05-11T08:38:06.398Z,6.70
2018-05-11T08:39:06.402Z,6.00
2018-05-11T08:40:06.420Z,5.40
2018-05-11T08:41:06.421Z,5.70
2018-05-11T08:42:06.427Z,6.60
2018-05-11T08:43:06.436Z,5.90
2018-05-11T08:44:06.445Z,6.00
2018-05-11T08:45:06.458Z,5.70
2018-05-11T08:46:06.461Z,6.00
2018-05-11T08:47:06.472Z,6.30
2018-05-11T08:48:06.479Z,5.10
2018-05-11T08:49:06.487Z,5.60
2018-05-11T08:50:06.499Z,5.00
2018-05-11T08:51:06.506Z,5.40
2018-05-11T08:52:06.515Z,5.80
2018-05-11T08:53:06.523Z,5.60
2018-05-11T08:54:06.536Z,6.40
2018-05-11T08:55:06.542Z,6.20
2018-05-11T08:56:06.552Z,6.50
2018-05-11T08:57:06.575Z,6.80
2018-05-11T08:58:06.577Z,6.50
2018-05-11T08:59:06.581Z,6.70
2018-05-11T09:00:06.591Z,6.10
2018-05-11T09:01:06.600Z,6.60
2018-05-11T09:02:06.611Z,6.60
2018-05-11T09:03:06.808Z,6.90
2018-05-11T09:04:06.632Z,6.60
2018-05-11T09:05:06.643Z,5.90
2018-05-11T09:06:06.658Z,6.70
2018-05-11T09:07:06.661Z,6.50
2018-05-11T09:08:06.671Z,5.70
2018-05-11T09:09:06.685Z,6.20
2018-05-11T09:10:06.691Z,6.10
2018-05-11T09:11:06.701Z,6.60
2018-05-11T09:12:06.711Z,6.70
2018-05-11T09:13:06.721Z,6.50
2018-05-11T09:14:06.732Z,6.40
2018-05-11T09:15:06.743Z,6.20
2018-05-11T09:16:06.754Z,5.70
2018-05-11T09:17:06.764Z,6.30
2018-05-11T09:18:06.774Z,6.30
2018-05-11T09:19:06.785Z,6.30
2018-05-11T09:20:06.796Z,6.40
2018-05-11T09:21:06.806Z,7.00
2018-05-11T09:22:06.886Z,6.60
2018-05-11T09:23:06.826Z,5.70
2018-05-11T09:24:06.840Z,6.80
2018-05-11T09:25:06.847Z,6.30
2018-05-11T09:26:06.858Z,6.80
2018-05-11T09:27:06.868Z,7.20
2018-05-11T09:28:06.878Z,7.30
2018-05-11T09:29:06.887Z,5.70
2018-05-11T09:30:06.897Z,6.80
2018-05-11T09:31:06.908Z,5.80
2018-05-11T09:32:06.920Z,7.10
2018-05-11T09:33:06.928Z,6.30
2018-05-11T09:34:06.939Z,7.10
2018-05-11T09:35:06.951Z,6.50
2018-05-11T09:36:06.960Z,6.50
2018-05-11T09:37:06.969Z,6.50
2018-05-11T09:38:06.981Z,6.40
2018-05-11T09:39:06.996Z,6.30
2018-05-11T09:40:07.003Z,6.40
2018-05-11T09:41:07.014Z,7.20
2018-05-11T09:42:07.026Z,7.00
2018-05-11T09:43:07.037Z,6.60
2018-05-11T09:44:07.050Z,6.00
2018-05-11T09:45:07.061Z,6.90
2018-05-11T09:46:07.073Z,6.70
2018-05-11T09:47:07.089Z,6.40
2018-05-11T09:48:07.099Z,5.80
2018-05-11T09:49:07.111Z,7.50
2018-05-11T09:50:07.121Z,6.40
2018-05-11T09:51:07.136Z,6.40
2018-05-11T09:52:07.149Z,6.50
2018-05-11T09:53:07.157Z,6.40
2018-05-11T09:54:07.170Z,6.40
2018-05-11T09:55:07.211Z,6.70
2018-05-11T09:56:07.193Z,7.10
2018-05-11T09:57:07.203Z,6.70
2018-05-11T09:58:07.214Z,6.10
2018-05-11T09:59:07.226Z,6.50
2018-05-11T10:00:07.237Z,6.30
2018-05-11T10:01:07.247Z,6.90
2018-05-11T10:02:07.259Z,6.60
2018-05-11T10:03:07.417Z,7.00
2018-05-11T10:04:07.276Z,6.90
2018-05-11T10:05:07.284Z,6.90
2018-05-11T10:06:07.293Z,6.10
2018-05-11T10:07:07.301Z,6.40
2018-05-11T10:08:07.309Z,6.20
2018-05-11T10:09:07.316Z,7.10
2018-05-11T10:10:07.324Z,6.60
2018-05-11T10:11:07.334Z,6.60
2018-05-11T10:12:07.338Z,6.60
2018-05-11T10:13:07.344Z,7.40
2018-05-11T10:14:07.350Z,6.20
2018-05-11T10:15:07.356Z,6.30
2018-05-11T10:16:07.362Z,5.90
2018-05-11T10:17:07.368Z,6.00
2018-05-11T10:18:07.374Z,5.50
2018-05-11T10:19:07.379Z,6.40
2018-05-11T10:20:07.385Z,6.50
2018-05-11T10:21:07.390Z,6.50
2018-05-11T10:22:07.396Z,6.20
2018-05-11T10:23:07.403Z,5.40
2018-05-11T10:24:07.409Z,5.50
2018-05-11T10:25:07.415Z,5.50
2018-05-11T10:26:07.421Z,6.30
2018-05-11T10:27:07.428Z,5.30
2018-05-11T10:28:07.434Z,5.20
2018-05-11T10:29:07.522Z,5.30
2018-05-11T10:30:07.446Z,5.50
2018-05-11T10:31:07.452Z,5.90
2018-05-11T10:32:07.458Z,5.30
2018-05-11T10:33:07.462Z,4.90
2018-05-11T10:34:07.468Z,5.90
2018-05-11T10:35:07.474Z,5.20
2018-05-11T10:36:07.480Z,4.60
2018-05-11T10:37:07.485Z,5.00
2018-05-11T10:38:07.490Z,5.50
2018-05-11T10:39:07.498Z,5.30
2018-05-11T10:40:07.502Z,5.10
2018-05-11T10:41:07.510Z,4.90
2018-05-11T10:42:07.511Z,4.90
2018-05-11T10:43:07.516Z,5.80
2018-05-11T10:44:07.522Z,5.70
2018-05-11T10:45:07.525Z,5.10
2018-05-11T10:46:07.529Z,5.00
2018-05-11T10:47:07.534Z,5.70
2018-05-11T10:48:07.539Z,5.40
2018-05-11T10:49:07.541Z,6.20
2018-05-11T10:50:07.549Z,6.30
2018-05-11T10:51:07.549Z,5.80
2018-05-11T10:52:07.552Z,5.50
2018-05-11T10:53:07.554Z,5.10
2018-05-11T10:54:07.559Z,4.90
2018-05-11T10:55:07.568Z,5.80
2018-05-11T10:56:07.568Z,5.10
2018-05-11T10:57:07.572Z,5.40
2018-05-11T10:58:07.578Z,5.30
2018-05-11T10:59:07.587Z,5.70
2018-05-11T11:00:07.589Z,5.80
2018-05-11T11:01:07.594Z,5.70
2018-05-11T11:02:07.599Z,4.50
2018-05-11T11:03:07.605Z,4.60
2018-05-11T11:04:07.612Z,5.60
2018-05-11T11:05:07.618Z,4.80
2018-05-11T11:06:07.625Z,4.60
2018-05-11T11:07:07.634Z,5.10
2018-05-11T11:08:07.643Z,4.60
2018-05-11T11:09:07.649Z,4.40
2018-05-11T11:10:07.657Z,4.00
2018-05-11T11:11:07.665Z,4.50
2018-05-11T11:12:07.673Z,4.40
2018-05-11T11:13:07.678Z,4.60
2018-05-11T11:14:07.690Z,5.10
2018-05-11T11:15:07.703Z,4.80
2018-05-11T11:16:07.698Z,4.80
2018-05-11T11:17:07.703Z,4.40
2018-05-11T11:18:07.709Z,4.90
2018-05-11T11:19:07.712Z,5.50
2018-05-11T11:20:07.717Z,5.30
2018-05-11T11:21:07.720Z,5.10
2018-05-11T11:22:07.724Z,5.30
2018-05-11T11:23:07.731Z,4.80
2018-05-11T11:24:07.733Z,5.20
2018-05-11T11:25:07.736Z,5.10
2018-05-11T11:26:07.738Z,4.20
2018-05-11T11:27:07.744Z,4.80
2018-05-11T11:28:07.743Z,4.50
2018-05-11T11:29:07.744Z,4.30
2018-05-11T11:30:07.749Z,3.70
2018-05-11T11:31:07.753Z,4.60
2018-05-11T11:32:07.751Z,4.30
2018-05-11T11:33:07.752Z,5.10
2018-05-11T11:34:07.753Z,4.50
2018-05-11T11:35:07.755Z,4.40
2018-05-11T11:36:07.756Z,4.30
2018-05-11T11:37:07.757Z,4.60
2018-05-11T11:38:07.757Z,4.90
2018-05-11T11:39:07.758Z,5.40
2018-05-11T11:40:07.759Z,5.00
2018-05-11T11:41:07.829Z,4.90
2018-05-11T11:42:07.864Z,3.90
2018-05-11T11:43:07.759Z,4.80
2018-05-11T11:44:07.758Z,5.30
2018-05-11T11:45:07.758Z,5.20
2018-05-11T11:46:07.758Z,5.30
2018-05-11T11:47:07.764Z,4.70
2018-05-11T11:48:07.758Z,5.00
2018-05-11T11:49:07.760Z,4.90
2018-05-11T11:50:07.756Z,5.20
2018-05-11T11:51:07.756Z,4.70
2018-05-11T11:52:07.755Z,4.40
2018-05-11T11:53:07.753Z,5.70
2018-05-11T11:54:07.753Z,5.20
2018-05-11T11:55:07.751Z,5.10
2018-05-11T11:56:07.755Z,4.70
2018-05-11T11:57:07.749Z,5.30
2018-05-11T11:58:07.748Z,4.70
2018-05-11T11:59:07.747Z,5.00
2018-05-11T12:00:07.746Z,4.40
2018-05-11T12:01:07.744Z,5.00
2018-05-11T12:02:07.743Z,5.40
2018-05-11T12:03:07.742Z,4.70
2018-05-11T12:04:07.741Z,5.00
2018-05-11T12:05:07.739Z,4.40
2018-05-11T12:06:07.738Z,4.00
2018-05-11T12:07:07.737Z,4.60
2018-05-11T12:08:07.737Z,4.40
2018-05-11T12:09:07.736Z,4.30
2018-05-11T12:10:07.735Z,4.70
2018-05-11T12:11:07.735Z,4.10
2018-05-11T12:12:07.735Z,4.90
2018-05-11T12:13:07.734Z,3.70
2018-05-11T12:14:07.735Z,4.20
2018-05-11T12:15:07.734Z,4.60
2018-05-11T12:16:07.740Z,4.00
2018-05-11T12:17:07.734Z,4.30
2018-05-11T12:18:07.735Z,3.50
2018-05-11T12:19:07.735Z,3.40
2018-05-11T12:20:07.735Z,3.90
2018-05-11T12:21:07.737Z,3.60
2018-05-11T12:22:07.735Z,3.90
2018-05-11T12:23:07.736Z,4.90
2018-05-11T12:24:07.735Z,3.80
2018-05-11T12:25:07.736Z,4.00
2018-05-11T12:26:07.738Z,3.90
2018-05-11T12:27:07.735Z,3.90
2018-05-11T12:28:07.735Z,4.10
2018-05-11T12:29:07.734Z,3.50
2018-05-11T12:30:07.735Z,3.50
2018-05-11T12:31:07.737Z,3.80
2018-05-11T12:32:07.734Z,3.40
2018-05-11T12:33:07.733Z,3.90
2018-05-11T12:34:07.733Z,4.10
2018-05-11T12:35:07.733Z,4.20
2018-05-11T12:36:07.732Z,4.70
2018-05-11T12:37:07.731Z,4.20
2018-05-11T12:38:07.730Z,4.00
2018-05-11T12:39:07.729Z,3.40
2018-05-11T12:40:07.729Z,3.60
2018-05-11T12:41:07.829Z,3.70
2018-05-11T12:42:07.727Z,3.50
2018-05-11T12:43:07.726Z,4.10
2018-05-11T12:44:07.725Z,3.50
2018-05-11T12:45:07.724Z,3.60
2018-05-11T12:46:07.724Z,3.70
2018-05-11T12:47:07.722Z,3.50
2018-05-11T12:48:07.722Z,3.80
2018-05-11T12:49:07.721Z,3.90
2018-05-11T12:50:07.721Z,3.80
2018-05-11T12:51:07.719Z,3.50
2018-05-11T12:52:07.719Z,3.50
2018-05-11T12:53:07.718Z,3.20
2018-05-11T12:54:07.718Z,3.60
2018-05-11T12:55:07.718Z,4.40
2018-05-11T12:56:07.717Z,3.90
2018-05-11T12:57:07.716Z,3.90
2018-05-11T12:58:07.716Z,3.00
2018-05-11T12:59:07.715Z,3.20
2018-05-11T13:00:07.715Z,3.30
2018-05-11T13:01:07.715Z,3.50
2018-05-11T13:02:07.714Z,3.60
2018-05-11T13:03:07.864Z,3.00
2018-05-11T13:04:07.714Z,3.10
2018-05-11T13:05:07.713Z,3.10
2018-05-11T13:06:07.713Z,2.70
2018-05-11T13:07:07.747Z,2.90
2018-05-11T13:08:07.713Z,2.60
2018-05-11T13:09:07.714Z,2.90
2018-05-11T13:10:07.712Z,2.50
2018-05-11T13:11:07.713Z,3.10
2018-05-11T13:12:07.712Z,2.40
2018-05-11T13:13:07.711Z,2.20
2018-05-11T13:14:07.710Z,3.20
2018-05-11T13:15:07.711Z,3.10
2018-05-11T13:16:07.711Z,2.80
2018-05-11T13:17:07.709Z,2.90
2018-05-11T13:18:07.709Z,3.30